Northport, Maine
Current Conditions -  °F | °C
As of 12:15 AM on Saturday 25 Oct 2014 (Local Time) from KRKD Reporting Station
Overcast Overcast  
Wind Chill: 41°   Ceiling: 2500
Heat Index: 45°   Visibility: 10mi
Dew Point: 43°   Wind: 7mph
Humidity: 93%   Direction: 300°WNW
Pressure: 29.65"   Gusts: NA
Location:  44.313°N, 69.0897°W
Report Text: KRKD 250415Z AUTO 30006KT 10SM SCT018 BKN025 OVC050 07/06 A2965 RMK AO1
Loading
Personal Weather Stations






























Interactive Weather Map
Tropical Storm Tracking
New forecast layout! Learn more

10-Day Weather Forecast

Advertisements
Track Severe Weather on mobile